createdAt,value
2023-01-09T00:00:32.974Z,1.55
2023-01-09T00:02:59.668Z,2.50
2023-01-09T00:05:26.928Z,2.00
2023-01-09T00:07:53.832Z,2.00
2023-01-09T00:10:20.597Z,1.75
2023-01-09T00:12:47.371Z,2.95
2023-01-09T00:15:13.982Z,1.67
2023-01-09T00:17:41.219Z,2.65
2023-01-09T00:20:10.134Z,1.83
2023-01-09T00:22:37.877Z,1.75
2023-01-09T00:25:05.217Z,1.58
2023-01-09T00:27:34.005Z,2.22
2023-01-09T00:30:01.111Z,1.95
2023-01-09T00:32:28.593Z,1.83
2023-01-09T00:34:55.965Z,2.55
2023-01-09T00:37:22.985Z,2.10
2023-01-09T00:39:49.612Z,1.63
2023-01-09T00:42:23.882Z,2.20
2023-01-09T00:44:59.373Z,2.47
2023-01-09T00:47:30.965Z,1.70
2023-01-09T00:50:06.602Z,1.50
2023-01-09T00:52:35.929Z,2.03
2023-01-09T00:55:03.493Z,2.22
2023-01-09T00:57:30.894Z,2.83
2023-01-09T00:59:58.516Z,2.67
2023-01-09T01:02:25.529Z,1.58
2023-01-09T01:05:10.914Z,1.40
2023-01-09T01:07:40.181Z,2.10
2023-01-09T01:10:13.085Z,1.75
2023-01-09T01:12:40.282Z,1.23
2023-01-09T01:15:08.291Z,1.67
2023-01-09T01:17:39.118Z,1.92
2023-01-09T01:20:08.057Z,2.55
2023-01-09T01:22:34.913Z,1.88
2023-01-09T01:25:02.044Z,1.77
2023-01-09T01:27:29.157Z,1.75
2023-01-09T01:29:56.521Z,1.20
2023-01-09T01:32:24.311Z,1.48
2023-01-09T01:34:51.002Z,2.55
2023-01-09T01:37:17.685Z,2.05
2023-01-09T01:39:44.397Z,1.85
2023-01-09T01:42:15.043Z,1.70
2023-01-09T01:45:00.512Z,2.08
2023-01-09T01:47:29.817Z,1.83
2023-01-09T01:49:56.908Z,1.65
2023-01-09T01:52:25.241Z,1.60
2023-01-09T01:54:52.793Z,2.28
2023-01-09T01:57:19.685Z,2.00
2023-01-09T01:59:51.081Z,2.28
2023-01-09T02:02:21.138Z,1.63
2023-01-09T02:04:48.908Z,2.10
2023-01-09T02:07:15.553Z,1.65
2023-01-09T02:09:44.635Z,2.35
2023-01-09T02:12:23.603Z,1.58
2023-01-09T02:14:55.557Z,1.75
2023-01-09T02:17:33.716Z,1.10
2023-01-09T02:20:24.549Z,1.50
2023-01-09T02:22:51.129Z,1.50
2023-01-09T02:26:01.864Z,1.58
2023-01-09T02:28:31.206Z,1.50
2023-01-09T02:31:28.482Z,1.80
2023-01-09T02:34:04.412Z,1.23
2023-01-09T02:36:40.881Z,1.67
2023-01-09T02:39:23.916Z,1.55
2023-01-09T02:41:53.230Z,0.93
2023-01-09T02:44:29.287Z,1.48
2023-01-09T02:47:27.922Z,1.38
2023-01-09T02:50:01.094Z,1.83
2023-01-09T02:52:52.631Z,1.27
2023-01-09T02:55:43.856Z,1.45
2023-01-09T02:58:30.670Z,1.30
2023-01-09T03:01:48.154Z,1.77
2023-01-09T03:04:41.423Z,1.13
2023-01-09T03:07:14.446Z,1.13
2023-01-09T03:09:43.384Z,1.63
2023-01-09T03:12:37.338Z,1.20
2023-01-09T03:15:06.787Z,2.28
2023-01-09T03:17:40.331Z,1.85
2023-01-09T03:20:10.565Z,1.00
2023-01-09T03:22:40.039Z,1.27
2023-01-09T03:25:07.026Z,1.13
2023-01-09T03:27:33.860Z,1.48
2023-01-09T03:30:00.489Z,1.35
2023-01-09T03:32:27.947Z,1.63
2023-01-09T03:34:54.622Z,1.55
2023-01-09T03:37:21.239Z,1.38
2023-01-09T03:39:47.883Z,1.52
2023-01-09T03:42:14.505Z,1.80
2023-01-09T03:44:41.175Z,1.55
2023-01-09T03:47:07.816Z,1.25
2023-01-09T03:49:34.571Z,1.13
2023-01-09T03:52:01.327Z,1.40
2023-01-09T03:54:27.956Z,1.20
2023-01-09T03:56:54.563Z,2.28
2023-01-09T03:59:21.234Z,1.13
2023-01-09T04:01:48.072Z,1.40
2023-01-09T04:04:14.778Z,1.10
2023-01-09T04:06:41.400Z,1.67
2023-01-09T04:09:08.043Z,1.15
2023-01-09T04:11:34.688Z,1.25
2023-01-09T04:14:01.352Z,1.25
2023-01-09T04:16:27.973Z,1.42
2023-01-09T04:18:54.713Z,1.20
2023-01-09T04:21:21.381Z,1.48
2023-01-09T04:23:48.029Z,1.45
2023-01-09T04:26:14.724Z,0.85
2023-01-09T04:28:41.355Z,1.55
2023-01-09T04:31:07.970Z,1.35
2023-01-09T04:33:34.860Z,1.40
2023-01-09T04:36:01.596Z,1.42
2023-01-09T04:38:28.332Z,1.48
2023-01-09T04:40:54.934Z,1.98
2023-01-09T04:43:21.732Z,1.52
2023-01-09T04:45:48.453Z,1.05
2023-01-09T04:48:15.096Z,1.00
2023-01-09T04:50:41.750Z,1.13
2023-01-09T04:53:08.739Z,1.77
2023-01-09T04:55:35.424Z,0.95
2023-01-09T04:58:02.089Z,1.05
2023-01-09T05:00:28.687Z,1.23
2023-01-09T05:02:55.476Z,1.00
2023-01-09T05:05:22.088Z,1.33
2023-01-09T05:07:48.690Z,1.67
2023-01-09T05:10:15.503Z,1.30
2023-01-09T05:12:42.138Z,1.65
2023-01-09T05:15:09.636Z,1.10
2023-01-09T05:17:36.262Z,1.30
2023-01-09T05:20:03.096Z,2.15
2023-01-09T05:22:30.459Z,1.65
2023-01-09T05:24:58.509Z,1.25
2023-01-09T05:27:27.321Z,1.63
2023-01-09T05:29:53.926Z,1.23
2023-01-09T05:32:20.576Z,1.45
2023-01-09T05:34:47.222Z,1.45
2023-01-09T05:37:13.845Z,2.40
2023-01-09T05:39:40.494Z,2.47
2023-01-09T05:42:07.161Z,2.17
2023-01-09T05:44:33.795Z,1.38
2023-01-09T05:47:02.671Z,1.70
2023-01-09T05:49:29.489Z,1.40
2023-01-09T05:51:56.082Z,1.73
2023-01-09T05:54:22.825Z,1.92
2023-01-09T05:56:49.453Z,1.48
2023-01-09T05:59:16.098Z,1.15
2023-01-09T06:01:42.797Z,1.42
2023-01-09T06:04:09.451Z,1.48
2023-01-09T06:06:36.043Z,1.55
2023-01-09T06:09:03.639Z,1.48
2023-01-09T06:11:30.302Z,1.35
2023-01-09T06:13:57.008Z,1.50
2023-01-09T06:16:23.742Z,1.70
2023-01-09T06:18:50.641Z,1.88
2023-01-09T06:21:17.267Z,1.27
2023-01-09T06:23:43.863Z,1.13
2023-01-09T06:26:10.653Z,2.00
2023-01-09T06:28:37.312Z,0.90
2023-01-09T06:31:04.061Z,2.33
2023-01-09T06:33:32.434Z,1.60
2023-01-09T06:35:59.245Z,1.90
2023-01-09T06:38:25.937Z,1.00
2023-01-09T06:40:52.538Z,1.70
2023-01-09T06:43:19.162Z,1.58
2023-01-09T06:45:45.755Z,3.13
2023-01-09T06:48:13.057Z,1.55
2023-01-09T06:50:39.795Z,2.05
2023-01-09T06:53:06.764Z,1.20
2023-01-09T06:55:33.521Z,1.15
2023-01-09T06:58:00.152Z,1.52
2023-01-09T07:00:27.325Z,1.02
2023-01-09T07:02:53.949Z,1.30
2023-01-09T07:05:20.580Z,1.40
2023-01-09T07:07:47.187Z,1.30
2023-01-09T07:10:15.089Z,1.42
2023-01-09T07:12:41.759Z,0.85
2023-01-09T07:15:09.160Z,0.77
2023-01-09T07:17:35.921Z,1.35
2023-01-09T07:20:02.667Z,1.33
2023-01-09T07:22:29.322Z,1.02
2023-01-09T07:24:56.015Z,1.50
2023-01-09T07:27:22.746Z,1.40
2023-01-09T07:29:50.252Z,1.10
2023-01-09T07:32:17.579Z,1.85
2023-01-09T07:34:44.173Z,2.15
2023-01-09T07:37:10.815Z,0.90
2023-01-09T07:39:37.478Z,1.40
2023-01-09T07:42:04.224Z,0.80
2023-01-09T07:44:30.865Z,1.20
2023-01-09T07:46:57.449Z,1.50
2023-01-09T07:49:26.075Z,0.95
2023-01-09T07:51:55.249Z,1.20
2023-01-09T07:54:22.226Z,2.05
2023-01-09T07:56:48.848Z,2.15
2023-01-09T07:59:15.466Z,0.80
2023-01-09T08:01:42.191Z,0.88
2023-01-09T08:04:08.893Z,1.88
2023-01-09T08:06:35.673Z,0.77
2023-01-09T08:09:02.399Z,1.20
2023-01-09T08:11:29.192Z,1.33
2023-01-09T08:13:55.954Z,0.77
2023-01-09T08:16:22.665Z,0.90
2023-01-09T08:18:49.292Z,0.60
2023-01-09T08:21:16.762Z,0.90
2023-01-09T08:23:45.543Z,0.80
2023-01-09T08:26:12.691Z,0.63
2023-01-09T08:28:39.541Z,0.57
2023-01-09T08:31:06.429Z,0.63
2023-01-09T08:33:33.166Z,0.47
2023-01-09T08:35:59.887Z,0.90
2023-01-09T08:38:26.498Z,0.70
2023-01-09T08:40:53.181Z,0.47
2023-01-09T08:43:38.057Z,0.60
2023-01-09T08:46:24.515Z,0.57
2023-01-09T08:48:51.203Z,0.70
2023-01-09T08:51:18.679Z,0.65
2023-01-09T08:53:46.524Z,0.57
2023-01-09T08:56:13.486Z,0.85
2023-01-09T08:58:40.168Z,0.90
2023-01-09T09:01:08.207Z,1.27
2023-01-09T09:03:34.893Z,0.90
2023-01-09T09:06:01.669Z,1.08
2023-01-09T09:08:28.402Z,0.80
2023-01-09T09:10:55.062Z,1.58
2023-01-09T09:13:21.758Z,0.70
2023-01-09T09:15:48.398Z,0.60
2023-01-09T09:18:15.121Z,0.50
2023-01-09T09:20:41.789Z,0.50
2023-01-09T09:23:09.135Z,0.60
2023-01-09T09:25:38.375Z,0.73
2023-01-09T09:28:06.058Z,0.90
2023-01-09T09:30:33.362Z,0.63
2023-01-09T09:33:03.711Z,0.60
2023-01-09T09:35:32.474Z,1.13
2023-01-09T09:38:04.977Z,1.20
2023-01-09T09:41:00.756Z,0.98
2023-01-09T09:44:07.576Z,0.85
2023-01-09T09:46:48.376Z,1.00
2023-01-09T09:49:31.311Z,0.95
2023-01-09T09:52:13.972Z,0.88
2023-01-09T09:54:47.908Z,0.75
2023-01-09T09:57:20.300Z,0.55
2023-01-09T09:59:51.438Z,0.68
2023-01-09T10:02:32.996Z,0.80
2023-01-09T10:05:08.402Z,0.60
2023-01-09T10:07:46.647Z,0.60
2023-01-09T10:10:28.370Z,0.60
2023-01-09T10:12:58.328Z,0.80
2023-01-09T10:15:46.585Z,1.00
2023-01-09T10:18:43.185Z,1.10
2023-01-09T10:21:21.562Z,0.80
2023-01-09T10:24:39.359Z,0.93
2023-01-09T10:27:43.125Z,0.93
2023-01-09T10:30:38.223Z,1.27
2023-01-09T10:33:46.983Z,1.08
2023-01-09T10:36:32.032Z,0.77
2023-01-09T10:39:04.470Z,1.00
2023-01-09T10:41:40.560Z,1.45
2023-01-09T10:44:45.826Z,0.90
2023-01-09T10:47:43.359Z,0.90
2023-01-09T10:50:24.261Z,1.00
2023-01-09T10:52:53.657Z,1.20
2023-01-09T10:55:41.136Z,1.23
2023-01-09T10:58:13.395Z,1.33
2023-01-09T11:00:41.703Z,1.13
2023-01-09T11:03:16.396Z,1.58
2023-01-09T11:05:43.334Z,1.88
2023-01-09T11:08:11.556Z,1.10
2023-01-09T11:10:47.974Z,1.30
2023-01-09T11:13:19.991Z,1.10
2023-01-09T11:15:58.806Z,1.27
2023-01-09T11:18:26.325Z,1.48
2023-01-09T11:20:53.285Z,1.17
2023-01-09T11:23:26.834Z,1.88
2023-01-09T11:25:55.677Z,1.08
2023-01-09T11:28:22.342Z,1.85
2023-01-09T11:30:59.820Z,1.55
2023-01-09T11:33:37.347Z,1.00
2023-01-09T11:36:08.741Z,1.60
2023-01-09T11:38:50.970Z,1.20
2023-01-09T11:41:26.475Z,2.03
2023-01-09T11:43:57.655Z,1.58
2023-01-09T11:46:41.948Z,1.33
2023-01-09T11:49:25.054Z,1.23
2023-01-09T11:52:25.980Z,0.90
2023-01-09T11:54:59.505Z,1.20
2023-01-09T11:57:27.374Z,1.63
2023-01-09T12:00:04.466Z,1.67
2023-01-09T12:03:09.703Z,1.85
2023-01-09T12:06:00.058Z,3.25
2023-01-09T12:08:47.769Z,1.48
2023-01-09T12:11:39.367Z,1.05
2023-01-09T12:14:17.470Z,1.67
2023-01-09T12:16:59.027Z,2.10
2023-01-09T12:19:28.546Z,1.58
2023-01-09T12:22:26.789Z,1.45
2023-01-09T12:25:11.810Z,1.30
2023-01-09T12:27:53.540Z,1.58
2023-01-09T12:30:38.993Z,1.33
2023-01-09T12:33:23.231Z,1.52
2023-01-09T12:36:02.845Z,1.10
2023-01-09T12:38:35.327Z,1.23
2023-01-09T12:41:26.280Z,1.73
2023-01-09T12:44:34.109Z,1.17
2023-01-09T12:47:06.983Z,1.00
2023-01-09T12:49:39.007Z,1.15
2023-01-09T12:52:32.049Z,1.05
2023-01-09T12:55:13.241Z,1.05
2023-01-09T12:57:46.362Z,1.40
2023-01-09T13:00:19.223Z,1.33
2023-01-09T13:03:00.641Z,2.35
2023-01-09T13:05:44.737Z,2.53
2023-01-09T13:08:29.544Z,1.15
2023-01-09T13:11:11.570Z,1.40
2023-01-09T13:13:54.095Z,1.30
2023-01-09T13:16:28.387Z,1.58
2023-01-09T13:19:11.225Z,1.60
2023-01-09T13:21:42.224Z,1.13
2023-01-09T13:24:24.950Z,1.52
2023-01-09T13:27:00.015Z,1.75
2023-01-09T13:29:42.425Z,2.17
2023-01-09T13:32:18.149Z,2.20
2023-01-09T13:34:49.503Z,1.27
2023-01-09T13:37:30.787Z,2.10
2023-01-09T13:40:06.973Z,1.17
2023-01-09T13:42:36.750Z,1.63
2023-01-09T13:45:20.471Z,2.45
2023-01-09T13:47:47.576Z,1.83
2023-01-09T13:50:27.728Z,1.38
2023-01-09T13:52:54.408Z,1.85
2023-01-09T13:55:25.803Z,1.77
2023-01-09T13:58:05.559Z,1.23
2023-01-09T14:00:34.950Z,1.60
2023-01-09T14:03:20.952Z,1.45
2023-01-09T14:05:47.505Z,2.00
2023-01-09T14:08:22.900Z,1.60
2023-01-09T14:10:52.481Z,0.88
2023-01-09T14:13:25.280Z,1.40
2023-01-09T14:16:02.536Z,1.48
2023-01-09T14:18:35.678Z,1.10
2023-01-09T14:21:10.291Z,1.00
2023-01-09T14:23:53.339Z,1.67
2023-01-09T14:26:24.610Z,1.20
2023-01-09T14:28:51.953Z,1.95
2023-01-09T14:31:33.715Z,2.30
2023-01-09T14:34:35.550Z,2.03
2023-01-09T14:37:02.953Z,1.60
2023-01-09T14:39:32.503Z,1.73
2023-01-09T14:42:09.184Z,2.22
2023-01-09T14:44:58.717Z,1.85
2023-01-09T14:47:31.520Z,1.48
2023-01-09T14:50:04.154Z,1.50
2023-01-09T14:53:04.694Z,1.45
2023-01-09T14:55:37.358Z,2.13
2023-01-09T14:58:11.217Z,1.17
2023-01-09T15:00:47.559Z,1.42
2023-01-09T15:03:14.964Z,1.38
2023-01-09T15:05:45.724Z,1.10
2023-01-09T15:08:18.221Z,1.67
2023-01-09T15:10:47.713Z,1.45
2023-01-09T15:13:19.523Z,1.35
2023-01-09T15:15:48.603Z,1.10
2023-01-09T15:18:31.939Z,1.30
2023-01-09T15:21:02.540Z,1.27
2023-01-09T15:23:31.055Z,1.25
2023-01-09T15:26:24.784Z,1.83
2023-01-09T15:28:53.893Z,1.83
2023-01-09T15:31:24.276Z,1.77
2023-01-09T15:33:53.943Z,1.52
2023-01-09T15:36:31.113Z,1.20
2023-01-09T15:38:59.433Z,1.77
2023-01-09T15:41:47.435Z,1.35
2023-01-09T15:44:27.354Z,1.30
2023-01-09T15:46:59.551Z,1.38
2023-01-09T15:49:26.512Z,1.50
2023-01-09T15:51:54.340Z,1.85
2023-01-09T15:54:29.379Z,1.15
2023-01-09T15:57:24.912Z,2.47
2023-01-09T15:59:56.532Z,2.72
2023-01-09T16:02:42.965Z,1.73
2023-01-09T16:05:16.540Z,1.50
2023-01-09T16:07:51.239Z,2.25
2023-01-09T16:10:23.850Z,3.30
2023-01-09T16:12:52.728Z,1.13
2023-01-09T16:15:20.682Z,1.40
2023-01-09T16:18:05.883Z,1.88
2023-01-09T16:20:32.572Z,2.30
2023-01-09T16:23:01.372Z,1.33
2023-01-09T16:25:32.162Z,1.52
2023-01-09T16:28:26.974Z,3.85
2023-01-09T16:30:58.186Z,1.70
2023-01-09T16:33:27.633Z,1.48
2023-01-09T16:35:54.999Z,1.38
2023-01-09T16:38:22.805Z,3.65
2023-01-09T16:41:18.415Z,1.73
2023-01-09T16:43:45.987Z,2.00
2023-01-09T16:46:15.284Z,1.67
2023-01-09T16:48:42.937Z,1.50
2023-01-09T16:51:18.869Z,2.10
2023-01-09T16:53:45.778Z,1.63
2023-01-09T16:56:23.486Z,2.05
2023-01-09T16:58:50.737Z,1.83
2023-01-09T17:01:18.335Z,2.53
2023-01-09T17:03:45.216Z,1.85
2023-01-09T17:06:32.825Z,1.63
2023-01-09T17:09:02.888Z,1.55
2023-01-09T17:11:32.091Z,2.20
2023-01-09T17:14:02.397Z,1.95
2023-01-09T17:16:30.085Z,1.90
2023-01-09T17:18:56.924Z,1.70
2023-01-09T17:21:27.041Z,1.70
2023-01-09T17:24:12.236Z,3.80
2023-01-09T17:27:00.064Z,1.20
2023-01-09T17:29:27.849Z,2.33
2023-01-09T17:31:54.915Z,1.40
2023-01-09T17:34:21.640Z,2.22
2023-01-09T17:36:48.364Z,3.08
2023-01-09T17:39:17.195Z,1.55
2023-01-09T17:41:44.251Z,1.63
2023-01-09T17:44:12.040Z,1.67
2023-01-09T17:46:41.364Z,2.17
2023-01-09T17:49:16.739Z,3.78
2023-01-09T17:51:43.837Z,1.95
2023-01-09T17:54:10.922Z,1.88
2023-01-09T17:56:39.443Z,1.88
2023-01-09T17:59:10.137Z,2.97
2023-01-09T18:01:36.858Z,3.47
2023-01-09T18:04:03.517Z,2.10
2023-01-09T18:06:30.158Z,3.33
2023-01-09T18:08:58.195Z,2.78
2023-01-09T18:11:25.133Z,1.75
2023-01-09T18:13:54.356Z,2.20
2023-01-09T18:16:24.470Z,1.98
2023-01-09T18:18:54.153Z,2.97
2023-01-09T18:21:24.606Z,3.28
2023-01-09T18:23:51.463Z,2.15
2023-01-09T18:26:20.943Z,2.63
2023-01-09T18:28:55.162Z,3.28
2023-01-09T18:31:24.474Z,2.47
2023-01-09T18:33:52.548Z,2.70
2023-01-09T18:36:22.298Z,4.18
2023-01-09T18:38:53.392Z,2.60
2023-01-09T18:41:21.413Z,2.63
2023-01-09T18:43:53.638Z,2.33
2023-01-09T18:46:24.634Z,3.13
2023-01-09T18:48:55.839Z,2.38
2023-01-09T18:51:23.988Z,2.88
2023-01-09T18:53:51.487Z,3.05
2023-01-09T18:56:20.111Z,2.30
2023-01-09T18:58:50.111Z,2.85
2023-01-09T19:01:17.114Z,3.10
2023-01-09T19:03:45.221Z,4.38
2023-01-09T19:06:12.214Z,2.72
2023-01-09T19:08:39.044Z,3.03
2023-01-09T19:11:06.199Z,2.85
2023-01-09T19:13:35.559Z,3.80
2023-01-09T19:16:03.965Z,3.30
2023-01-09T19:18:34.689Z,3.53
2023-01-09T19:21:02.099Z,2.83
2023-01-09T19:23:28.860Z,2.40
2023-01-09T19:25:57.712Z,2.00
2023-01-09T19:28:24.517Z,3.33
2023-01-09T19:30:56.802Z,2.80
2023-01-09T19:33:25.343Z,2.80
2023-01-09T19:35:53.272Z,3.92
2023-01-09T19:38:22.645Z,3.10
2023-01-09T19:40:49.589Z,3.42
2023-01-09T19:43:25.987Z,3.80
2023-01-09T19:45:56.441Z,3.55
2023-01-09T19:48:24.527Z,2.70
2023-01-09T19:50:51.214Z,2.95
2023-01-09T19:53:18.445Z,2.83
2023-01-09T19:55:45.114Z,3.92
2023-01-09T19:58:11.761Z,3.08
2023-01-09T20:00:38.526Z,2.47
2023-01-09T20:03:05.139Z,2.78
2023-01-09T20:05:33.114Z,2.92
2023-01-09T20:08:00.130Z,3.05
2023-01-09T20:10:26.763Z,3.40
2023-01-09T20:12:53.461Z,3.53
2023-01-09T20:15:20.229Z,5.13
2023-01-09T20:17:46.857Z,4.90
2023-01-09T20:20:13.804Z,3.22
2023-01-09T20:22:40.590Z,2.67
2023-01-09T20:25:10.386Z,2.92
2023-01-09T20:27:37.165Z,3.38
2023-01-09T20:30:04.293Z,3.10
2023-01-09T20:32:32.462Z,2.95
2023-01-09T20:34:59.195Z,2.67
2023-01-09T20:37:26.029Z,2.88
2023-01-09T20:39:53.274Z,3.58
2023-01-09T20:42:20.084Z,3.60
2023-01-09T20:44:47.468Z,2.88
2023-01-09T20:47:14.220Z,2.92
2023-01-09T20:49:40.997Z,3.67
2023-01-09T20:52:07.853Z,2.60
2023-01-09T20:54:35.938Z,3.17
2023-01-09T20:57:02.684Z,2.38
2023-01-09T20:59:29.486Z,3.35
2023-01-09T21:01:56.158Z,3.08
2023-01-09T21:04:22.992Z,2.33
2023-01-09T21:06:50.438Z,3.60
2023-01-09T21:09:17.635Z,2.53
2023-01-09T21:11:44.263Z,2.67
2023-01-09T21:14:10.905Z,3.00
2023-01-09T21:16:37.648Z,2.95
2023-01-09T21:19:05.102Z,2.70
2023-01-09T21:21:31.931Z,2.42
2023-01-09T21:24:00.709Z,3.38
2023-01-09T21:26:30.614Z,2.72
2023-01-09T21:29:00.158Z,2.55
2023-01-09T21:31:34.161Z,2.75
2023-01-09T21:34:04.844Z,2.53
2023-01-09T21:36:31.855Z,3.05
2023-01-09T21:39:00.105Z,3.80
2023-01-09T21:41:45.495Z,2.67
2023-01-09T21:44:32.031Z,3.70
2023-01-09T21:47:00.918Z,2.92
2023-01-09T21:49:30.946Z,2.97
2023-01-09T21:51:58.451Z,2.40
2023-01-09T21:54:25.259Z,3.60
2023-01-09T21:56:52.844Z,3.97
2023-01-09T21:59:20.246Z,2.60
2023-01-09T22:01:49.241Z,2.22
2023-01-09T22:04:17.730Z,3.55
2023-01-09T22:06:44.595Z,2.50
2023-01-09T22:09:11.724Z,3.47
2023-01-09T22:11:39.394Z,3.53
2023-01-09T22:14:06.555Z,1.90
2023-01-09T22:16:34.018Z,3.00
2023-01-09T22:19:00.968Z,4.07
2023-01-09T22:21:27.723Z,3.55
2023-01-09T22:23:54.439Z,2.97
2023-01-09T22:26:21.649Z,2.95
2023-01-09T22:28:49.398Z,3.30
2023-01-09T22:31:21.920Z,3.70
2023-01-09T22:33:53.511Z,2.65
2023-01-09T22:36:20.812Z,2.40
2023-01-09T22:38:47.863Z,2.33
2023-01-09T22:41:14.856Z,3.10
2023-01-09T22:43:41.640Z,3.00
2023-01-09T22:46:11.552Z,3.22
2023-01-09T22:48:39.053Z,2.95
2023-01-09T22:51:15.700Z,2.70
2023-01-09T22:53:43.501Z,3.05
2023-01-09T22:56:13.544Z,2.83
2023-01-09T22:58:40.222Z,2.00
2023-01-09T23:01:09.626Z,2.05
2023-01-09T23:03:36.268Z,2.85
2023-01-09T23:06:06.006Z,2.97
2023-01-09T23:08:34.123Z,2.95
2023-01-09T23:11:02.010Z,2.97
2023-01-09T23:13:28.649Z,2.95
2023-01-09T23:15:55.618Z,3.75
2023-01-09T23:18:22.456Z,2.50
2023-01-09T23:20:57.054Z,3.38
2023-01-09T23:23:25.426Z,3.58
2023-01-09T23:25:56.942Z,2.67
2023-01-09T23:28:25.165Z,3.13
2023-01-09T23:30:52.505Z,3.35
2023-01-09T23:33:21.330Z,2.28
2023-01-09T23:35:48.179Z,3.30
2023-01-09T23:38:15.442Z,2.88
2023-01-09T23:40:42.462Z,2.85
2023-01-09T23:43:13.544Z,3.88
2023-01-09T23:45:43.231Z,3.47
2023-01-09T23:48:12.719Z,3.90
2023-01-09T23:50:42.379Z,2.85
2023-01-09T23:53:09.206Z,2.65
2023-01-09T23:55:37.221Z,2.63
2023-01-09T23:58:04.116Z,3.47
